Time;durP1;ratioP1;P1;durP2;ratioP2;P2;SDS_P1;SDS_P2;PMS_P1;PMS_P2;Temp;Humidity;BMP_temperature;BMP_pressure;BME280_temperature;BME280_humidity;BME280_pressure;Samples;Min_cycle;Max_cycle;Signal;HPM_P1;HPM_P2
2023/05/29 00:01:00;;;;;;;6.50;3.73;;;20.30;54.70;;;;;;5050930;28;20221;-70
2023/05/29 00:03:27;;;;;;;5.27;3.93;;;20.40;55.00;;;;;;5051602;28;20229;-70
2023/05/29 00:05:54;;;;;;;6.43;4.20;;;20.40;54.90;;;;;;5050876;28;20209;-70
2023/05/29 00:08:22;;;;;;;6.10;3.60;;;20.40;54.50;;;;;;5048652;28;20208;-70
2023/05/29 00:10:49;;;;;;;5.40;4.10;;;20.40;54.30;;;;;;5048017;28;20205;-70
2023/05/29 00:13:16;;;;;;;6.67;4.03;;;20.40;54.00;;;;;;5050934;28;20213;-73
2023/05/29 00:15:43;;;;;;;7.53;3.83;;;20.40;53.90;;;;;;5050919;28;20233;-66
2023/05/29 00:18:10;;;;;;;6.53;3.90;;;20.40;53.90;;;;;;5050705;28;20248;-67
2023/05/29 00:20:37;;;;;;;6.43;3.83;;;20.40;54.00;;;;;;5050997;28;20232;-65
2023/05/29 00:23:05;;;;;;;6.17;3.87;;;20.40;53.80;;;;;;5049366;28;20221;-68
2023/05/29 00:25:34;;;;;;;6.27;3.67;;;20.40;53.70;;;;;;5050875;28;20240;-67
2023/05/29 00:28:00;;;;;;;5.00;3.70;;;20.40;53.70;;;;;;5049490;28;20201;-71
2023/05/29 00:30:27;;;;;;;4.10;3.50;;;20.40;53.70;;;;;;5033329;28;20218;-72
2023/05/29 00:32:54;;;;;;;5.27;4.30;;;20.40;53.70;;;;;;5051255;28;20205;-72
2023/05/29 00:35:21;;;;;;;6.57;4.37;;;20.40;53.70;;;;;;5050993;28;20684;-72
2023/05/29 00:37:48;;;;;;;5.07;3.50;;;20.40;53.70;;;;;;5050872;28;20209;-71
2023/05/29 00:40:15;;;;;;;5.33;4.07;;;20.40;53.80;;;;;;5051104;28;20297;-71
2023/05/29 00:42:43;;;;;;;5.47;3.90;;;20.40;53.80;;;;;;5050444;28;20236;-72
2023/05/29 00:45:12;;;;;;;4.90;3.80;;;20.30;53.90;;;;;;5050431;28;20202;-72
2023/05/29 00:47:40;;;;;;;5.07;3.57;;;20.30;54.20;;;;;;5050750;28;20238;-71
2023/05/29 00:50:09;;;;;;;5.23;3.60;;;20.30;54.20;;;;;;5050877;28;20217;-72
2023/05/29 00:52:36;;;;;;;8.47;3.97;;;20.30;54.30;;;;;;5050931;28;20202;-72
2023/05/29 00:55:04;;;;;;;6.93;3.73;;;20.20;54.30;;;;;;5049877;28;20235;-72
2023/05/29 00:57:31;;;;;;;5.13;3.93;;;20.20;54.40;;;;;;5049322;28;20204;-72
2023/05/29 01:00:01;;;;;;;6.77;3.80;;;20.20;54.40;;;;;;5050487;28;20209;-72
2023/05/29 01:02:30;;;;;;;4.80;3.60;;;20.10;54.30;;;;;;5051039;28;20596;-72
2023/05/29 01:04:58;;;;;;;7.97;3.60;;;20.10;54.20;;;;;;5050374;28;20209;-71
2023/05/29 01:07:25;;;;;;;5.40;3.50;;;20.10;54.10;;;;;;5050508;28;20236;-71
2023/05/29 01:09:52;;;;;;;4.93;3.57;;;20.10;54.10;;;;;;5050745;28;20205;-71
2023/05/29 01:12:27;;;;;;;5.80;3.90;;;20.10;53.90;;;;;;5050940;28;20198;-72
2023/05/29 01:15:09;;;;;;;4.93;3.70;;;20.10;53.40;;;;;;5050251;28;20237;-71
2023/05/29 01:17:47;;;;;;;5.63;3.80;;;20.10;53.40;;;;;;5051459;28;20202;-71
2023/05/29 01:20:28;;;;;;;7.27;3.67;;;20.20;53.30;;;;;;5054339;28;20229;-71
2023/05/29 01:23:22;;;;;;;6.57;3.93;;;20.10;53.40;;;;;;5053855;28;20198;-72
2023/05/29 01:26:08;;;;;;;5.63;3.47;;;20.10;53.80;;;;;;5026832;28;20206;-71
2023/05/29 01:28:44;;;;;;;4.67;3.33;;;20.10;54.50;;;;;;5054080;28;20205;-72
2023/05/29 01:31:13;;;;;;;5.53;3.50;;;20.10;53.90;;;;;;5054496;28;20201;-72
2023/05/29 01:33:41;;;;;;;3.67;3.33;;;20.10;54.00;;;;;;5054473;28;20739;-72
2023/05/29 01:36:10;;;;;;;5.23;3.70;;;20.00;54.00;;;;;;5053820;28;20645;-72
2023/05/29 01:38:37;;;;;;;4.30;3.23;;;20.00;53.90;;;;;;5054157;28;20209;-71
2023/05/29 01:41:05;;;;;;;5.77;3.83;;;20.00;53.90;;;;;;5053045;28;20872;-71
2023/05/29 01:43:32;;;;;;;4.90;3.40;;;20.00;54.10;;;;;;5054276;28;20209;-71
2023/05/29 01:46:00;;;;;;;4.47;3.37;;;20.00;54.10;;;;;;5054523;28;20222;-72
2023/05/29 01:48:28;;;;;;;4.83;3.30;;;19.90;54.10;;;;;;5053168;28;20201;-72
2023/05/29 01:50:56;;;;;;;4.53;3.37;;;19.90;54.30;;;;;;5053922;28;20557;-72
2023/05/29 01:53:23;;;;;;;5.17;3.47;;;19.90;54.30;;;;;;5053815;28;20229;-72
2023/05/29 01:55:51;;;;;;;6.63;3.97;;;19.80;54.30;;;;;;5054455;28;20210;-72
2023/05/29 01:58:21;;;;;;;7.30;3.43;;;19.80;54.40;;;;;;5053682;28;20516;-71
2023/05/29 02:00:48;;;;;;;5.60;3.33;;;19.80;54.70;;;;;;5054249;28;20248;-71
2023/05/29 02:03:16;;;;;;;7.77;3.83;;;19.70;54.80;;;;;;5053551;28;20659;-72
2023/05/29 02:05:43;;;;;;;4.50;3.50;;;19.70;54.70;;;;;;5053727;28;20229;-72
2023/05/29 02:08:11;;;;;;;4.87;3.83;;;19.60;54.50;;;;;;5053636;28;20206;-72
2023/05/29 02:10:38;;;;;;;5.67;3.63;;;19.60;54.70;;;;;;5053899;28;20213;-70
2023/05/29 02:13:05;;;;;;;5.00;3.70;;;19.50;54.70;;;;;;5053600;28;20559;-72
2023/05/29 02:15:32;;;;;;;6.00;3.70;;;19.50;54.90;;;;;;5053025;28;20233;-71
2023/05/29 02:18:00;;;;;;;5.20;3.77;;;19.40;54.90;;;;;;5053284;28;20324;-72
2023/05/29 02:20:29;;;;;;;6.00;3.93;;;19.40;55.00;;;;;;5053511;28;20868;-71
2023/05/29 02:22:56;;;;;;;4.77;3.37;;;19.30;55.20;;;;;;5053375;28;20717;-71
2023/05/29 02:25:22;;;;;;;4.70;3.80;;;19.30;55.50;;;;;;5053060;28;20295;-71
2023/05/29 02:27:49;;;;;;;4.40;3.60;;;19.30;56.00;;;;;;5052505;28;20209;-72
2023/05/29 02:30:16;;;;;;;6.53;3.60;;;19.20;55.50;;;;;;5053008;28;20213;-71
2023/05/29 02:32:43;;;;;;;5.07;3.67;;;19.10;55.90;;;;;;5053464;28;20202;-71
2023/05/29 02:35:10;;;;;;;6.27;3.70;;;19.10;55.90;;;;;;5052971;28;20202;-71
2023/05/29 02:37:38;;;;;;;5.53;4.17;;;19.10;56.10;;;;;;5053416;28;20225;-71
2023/05/29 02:40:08;;;;;;;5.57;4.00;;;19.00;56.30;;;;;;5052783;28;20212;-71
2023/05/29 02:42:35;;;;;;;5.83;3.87;;;19.00;56.40;;;;;;5052544;28;20242;-72
2023/05/29 02:45:02;;;;;;;4.27;3.47;;;18.90;56.50;;;;;;5053172;28;20209;-71
2023/05/29 02:47:29;;;;;;;5.37;4.00;;;18.90;56.60;;;;;;5052911;28;20220;-71
2023/05/29 02:49:56;;;;;;;6.20;4.30;;;18.90;57.00;;;;;;5052907;28;20234;-71
2023/05/29 02:52:23;;;;;;;5.00;3.43;;;18.80;57.00;;;;;;5053048;28;20208;-71
2023/05/29 02:54:51;;;;;;;6.37;3.80;;;18.70;56.90;;;;;;5052942;28;20444;-71
2023/05/29 02:57:18;;;;;;;5.50;4.00;;;18.70;56.90;;;;;;5052310;28;20464;-71
2023/05/29 02:59:45;;;;;;;5.93;4.23;;;18.70;57.10;;;;;;5052728;28;20232;-71
2023/05/29 03:02:12;;;;;;;5.83;4.07;;;18.60;57.30;;;;;;5052346;28;20237;-72
2023/05/29 03:04:39;;;;;;;4.27;3.87;;;18.60;57.30;;;;;;5052885;28;20452;-72
2023/05/29 03:07:06;;;;;;;4.53;3.70;;;18.50;57.30;;;;;;5052020;28;20209;-71
2023/05/29 03:09:33;;;;;;;6.07;3.90;;;18.50;57.50;;;;;;5052179;28;20229;-72
2023/05/29 03:12:02;;;;;;;5.50;4.20;;;18.40;57.50;;;;;;5052485;28;20539;-71
2023/05/29 03:14:29;;;;;;;5.47;3.97;;;18.40;57.50;;;;;;5052645;28;20206;-72
2023/05/29 03:16:56;;;;;;;6.43;4.00;;;18.40;57.30;;;;;;5052780;28;20432;-72
2023/05/29 03:19:23;;;;;;;6.97;4.30;;;18.40;57.60;;;;;;5052286;28;20483;-72
2023/05/29 03:21:50;;;;;;;7.23;4.07;;;18.30;57.60;;;;;;5051773;28;20221;-72
2023/05/29 03:24:17;;;;;;;4.50;4.00;;;18.20;57.70;;;;;;5052333;28;20229;-72
2023/05/29 03:26:44;;;;;;;5.67;4.07;;;18.20;57.80;;;;;;5052491;28;20206;-71
2023/05/29 03:29:12;;;;;;;6.13;4.30;;;18.20;57.90;;;;;;5051167;28;20209;-72
2023/05/29 03:31:39;;;;;;;5.03;3.77;;;18.20;58.10;;;;;;5050392;28;20471;-72
2023/05/29 03:34:06;;;;;;;5.50;4.00;;;18.20;58.20;;;;;;5051981;28;20440;-72
2023/05/29 03:36:33;;;;;;;4.63;3.90;;;18.10;58.30;;;;;;5052016;28;20478;-72
2023/05/29 03:39:00;;;;;;;6.63;3.77;;;18.10;58.40;;;;;;5051848;28;20488;-71
2023/05/29 03:41:26;;;;;;;6.90;4.20;;;18.10;58.60;;;;;;5050829;28;20221;-71
2023/05/29 03:43:53;;;;;;;5.27;3.60;;;18.00;58.60;;;;;;5051994;28;20454;-72
2023/05/29 03:46:22;;;;;;;4.20;3.80;;;18.00;58.90;;;;;;5051458;28;20733;-72
2023/05/29 03:48:49;;;;;;;5.27;3.60;;;18.00;59.00;;;;;;5052169;28;20233;-72
2023/05/29 03:51:16;;;;;;;3.67;3.20;;;17.90;59.00;;;;;;5051525;28;20209;-71
2023/05/29 03:53:43;;;;;;;4.17;3.77;;;17.90;59.10;;;;;;5051665;28;20460;-71
2023/05/29 03:56:09;;;;;;;5.40;3.50;;;17.90;59.20;;;;;;5051035;28;20555;-71
2023/05/29 03:58:37;;;;;;;6.27;3.77;;;17.80;59.20;;;;;;5051887;28;20448;-71
2023/05/29 04:01:04;;;;;;;6.80;3.53;;;17.90;59.50;;;;;;5051606;28;20463;-71
2023/05/29 04:03:32;;;;;;;5.80;4.30;;;17.90;59.90;;;;;;5051578;28;20432;-71
2023/05/29 04:05:59;;;;;;;4.70;3.57;;;17.80;60.50;;;;;;5051691;28;20487;-72
2023/05/29 04:08:26;;;;;;;6.90;4.17;;;17.80;59.80;;;;;;5050603;28;20538;-71
2023/05/29 04:10:54;;;;;;;4.13;3.57;;;17.80;59.80;;;;;;5051240;28;20443;-72
2023/05/29 04:13:21;;;;;;;5.77;4.27;;;17.70;60.00;;;;;;5050049;28;20456;-72
2023/05/29 04:15:48;;;;;;;5.23;4.07;;;17.70;60.30;;;;;;5051552;28;20448;-72
2023/05/29 04:18:15;;;;;;;6.40;4.23;;;17.70;60.50;;;;;;5051530;28;20462;-72
2023/05/29 04:20:46;;;;;;;5.67;3.63;;;17.70;60.60;;;;;;5050726;28;20534;-72
2023/05/29 04:23:13;;;;;;;6.23;3.90;;;17.80;60.90;;;;;;5050904;28;20578;-72
2023/05/29 04:25:40;;;;;;;6.17;4.43;;;17.70;61.40;;;;;;5051137;28;20467;-71
2023/05/29 04:28:07;;;;;;;9.47;4.00;;;17.70;61.90;;;;;;5051483;28;20537;-71
2023/05/29 04:30:35;;;;;;;6.37;4.27;;;17.70;62.30;;;;;;5051091;28;20460;-71
2023/05/29 04:33:02;;;;;;;5.77;4.00;;;17.60;62.30;;;;;;5050161;28;20510;-72
2023/05/29 04:35:29;;;;;;;4.97;3.50;;;17.70;62.60;;;;;;5050988;28;20444;-71
2023/05/29 04:37:57;;;;;;;5.37;3.97;;;17.60;62.80;;;;;;5050648;28;20452;-72
2023/05/29 04:40:24;;;;;;;5.77;3.97;;;17.60;63.10;;;;;;5050819;28;20472;-72
2023/05/29 04:42:52;;;;;;;8.43;4.53;;;17.70;63.50;;;;;;5050118;28;20491;-72
2023/05/29 04:45:20;;;;;;;12.90;4.87;;;17.70;63.70;;;;;;5050620;28;20452;-72
2023/05/29 04:47:47;;;;;;;14.57;5.67;;;17.70;64.50;;;;;;5048508;28;20518;-72
2023/05/29 04:50:16;;;;;;;10.30;4.40;;;17.70;64.80;;;;;;5049739;28;20452;-72
2023/05/29 04:52:43;;;;;;;4.97;4.03;;;17.70;64.60;;;;;;5049618;28;20514;-72
2023/05/29 04:55:11;;;;;;;7.20;4.67;;;17.70;64.30;;;;;;5049722;28;21219;-72
2023/05/29 04:57:38;;;;;;;14.23;5.03;;;17.70;64.40;;;;;;5048122;28;20471;-72
2023/05/29 05:00:08;;;;;;;16.23;6.83;;;17.80;64.70;;;;;;5049545;28;20494;-72
2023/05/29 05:02:35;;;;;;;11.00;5.60;;;17.80;65.10;;;;;;5049412;28;21251;-71
2023/05/29 05:05:02;;;;;;;13.40;6.00;;;17.90;65.90;;;;;;5049009;28;20452;-71
2023/05/29 05:07:29;;;;;;;9.23;5.47;;;17.90;66.00;;;;;;5048927;28;20999;-73
2023/05/29 05:09:55;;;;;;;6.73;4.40;;;18.00;65.80;;;;;;5050029;28;20452;-71
2023/05/29 05:12:24;;;;;;;4.77;3.60;;;18.00;65.20;;;;;;5049671;28;20468;-72
2023/05/29 05:14:50;;;;;;;10.37;4.30;;;18.10;65.40;;;;;;5049651;28;20444;-72
2023/05/29 05:17:17;;;;;;;6.07;4.23;;;18.20;65.30;;;;;;5049743;28;21018;-72
2023/05/29 05:19:44;;;;;;;6.47;4.13;;;18.20;65.30;;;;;;5050184;28;20444;-71
2023/05/29 05:22:11;;;;;;;6.07;3.93;;;18.20;65.50;;;;;;5049538;28;20324;-72
2023/05/29 05:24:38;;;;;;;4.23;3.83;;;18.30;65.70;;;;;;5050368;28;20205;-72
2023/05/29 05:27:06;;;;;;;4.53;3.80;;;18.40;65.70;;;;;;5049672;28;20224;-72
2023/05/29 05:29:34;;;;;;;6.83;4.03;;;18.50;66.20;;;;;;5050256;28;20487;-72
2023/05/29 05:32:01;;;;;;;5.73;3.90;;;18.50;65.90;;;;;;5049519;28;20198;-71
2023/05/29 05:34:28;;;;;;;6.53;4.27;;;18.60;65.90;;;;;;5049850;28;20198;-72
2023/05/29 05:36:55;;;;;;;5.40;4.00;;;18.70;65.90;;;;;;5050525;28;20205;-71
2023/05/29 05:39:22;;;;;;;7.40;4.57;;;18.70;65.80;;;;;;5050702;28;20206;-71
2023/05/29 05:41:48;;;;;;;4.87;4.20;;;18.80;65.30;;;;;;5051065;28;20468;-71
2023/05/29 05:44:15;;;;;;;5.73;4.13;;;18.90;65.00;;;;;;5051312;28;20202;-72
2023/05/29 05:46:44;;;;;;;6.80;4.23;;;18.90;64.40;;;;;;5050659;28;20198;-72
2023/05/29 05:49:11;;;;;;;5.33;4.07;;;19.00;65.10;;;;;;5051424;28;20249;-71
2023/05/29 05:51:38;;;;;;;7.23;4.67;;;19.10;64.50;;;;;;5050761;28;20673;-71
2023/05/29 05:54:05;;;;;;;5.50;4.40;;;19.20;64.00;;;;;;5051211;28;20564;-72
2023/05/29 05:56:32;;;;;;;5.20;4.40;;;19.20;63.80;;;;;;5050208;28;20464;-72
2023/05/29 05:58:58;;;;;;;5.40;4.10;;;19.30;63.50;;;;;;5051155;28;20331;-71
2023/05/29 06:01:25;;;;;;;7.67;4.50;;;19.40;63.20;;;;;;5050331;28;20954;-71
2023/05/29 06:03:54;;;;;;;5.53;4.03;;;19.50;63.20;;;;;;5052577;28;20222;-72
2023/05/29 06:06:20;;;;;;;5.80;4.00;;;19.60;63.70;;;;;;5053908;28;20230;-72
2023/05/29 06:08:48;;;;;;;4.30;3.50;;;19.60;63.70;;;;;;5054915;28;20208;-71
2023/05/29 06:11:15;;;;;;;4.17;3.70;;;19.70;63.50;;;;;;5054551;28;20248;-72
2023/05/29 06:13:42;;;;;;;6.30;3.93;;;19.80;63.00;;;;;;5054305;28;20284;-72
2023/05/29 06:16:09;;;;;;;4.60;4.13;;;19.90;62.70;;;;;;5054573;28;20206;-72
2023/05/29 06:18:36;;;;;;;4.93;3.97;;;20.00;63.00;;;;;;5053470;28;20288;-72
2023/05/29 06:21:07;;;;;;;6.37;3.90;;;20.00;62.20;;;;;;5054595;28;20217;-73
2023/05/29 06:23:36;;;;;;;4.03;3.60;;;20.10;62.20;;;;;;5054353;28;20731;-72
2023/05/29 06:26:03;;;;;;;5.53;3.90;;;20.20;61.70;;;;;;5053697;28;20206;-72
2023/05/29 06:28:30;;;;;;;5.43;4.13;;;20.30;61.90;;;;;;5053553;28;20206;-71
2023/05/29 06:30:57;;;;;;;5.97;4.00;;;20.40;61.50;;;;;;5054211;28;20233;-72
2023/05/29 06:33:24;;;;;;;5.03;3.57;;;20.40;61.40;;;;;;5053817;28;20594;-71
2023/05/29 06:35:50;;;;;;;5.93;3.87;;;20.50;61.50;;;;;;5054076;28;20686;-73
2023/05/29 06:38:19;;;;;;;5.10;3.57;;;20.60;61.30;;;;;;5054441;28;20565;-72
2023/05/29 06:40:46;;;;;;;4.67;3.80;;;20.70;60.20;;;;;;5054163;28;20630;-72
2023/05/29 06:43:12;;;;;;;7.60;3.63;;;20.70;59.90;;;;;;5036481;28;20241;-72
2023/05/29 06:45:40;;;;;;;4.53;3.10;;;20.80;59.80;;;;;;5052483;28;20216;-72
2023/05/29 06:48:07;;;;;;;5.90;3.10;;;20.90;59.50;;;;;;5053789;28;20208;-72
2023/05/29 06:50:34;;;;;;;4.17;3.67;;;21.00;59.20;;;;;;5054271;28;20201;-72
2023/05/29 06:53:01;;;;;;;4.00;3.50;;;21.10;59.10;;;;;;5053100;28;20274;-72
2023/05/29 06:55:29;;;;;;;6.43;3.30;;;21.20;58.50;;;;;;5052715;28;20226;-72
2023/05/29 06:57:56;;;;;;;3.60;3.20;;;21.30;58.90;;;;;;5052974;28;20206;-72
2023/05/29 07:00:24;;;;;;;3.97;3.43;;;21.30;57.80;;;;;;5053213;28;20210;-72
2023/05/29 07:02:51;;;;;;;4.47;3.67;;;21.50;57.80;;;;;;5053611;28;20727;-72
2023/05/29 07:05:18;;;;;;;4.87;3.50;;;21.60;57.80;;;;;;5052873;28;20206;-72
2023/05/29 07:07:45;;;;;;;5.07;3.27;;;21.70;58.20;;;;;;5053649;28;20694;-72
2023/05/29 07:10:12;;;;;;;4.83;3.17;;;21.70;57.60;;;;;;5052538;28;20213;-71
2023/05/29 07:12:40;;;;;;;3.97;2.90;;;21.80;57.00;;;;;;5051706;28;20203;-71
2023/05/29 07:15:08;;;;;;;4.77;3.40;;;21.90;56.90;;;;;;5052799;28;20744;-73
2023/05/29 07:17:35;;;;;;;5.30;3.10;;;22.00;56.70;;;;;;5053638;28;20229;-72
2023/05/29 07:20:02;;;;;;;5.47;3.03;;;22.10;56.70;;;;;;5053158;28;20336;-71
2023/05/29 07:22:29;;;;;;;4.57;3.43;;;22.20;55.60;;;;;;5053213;28;20238;-72
2023/05/29 07:24:56;;;;;;;4.53;3.47;;;22.30;54.80;;;;;;5053107;28;20305;-72
2023/05/29 07:27:23;;;;;;;5.93;3.57;;;22.40;54.70;;;;;;5053234;28;20749;-72
2023/05/29 07:29:51;;;;;;;4.70;3.20;;;22.50;54.60;;;;;;5052868;28;20688;-72
2023/05/29 07:32:18;;;;;;;3.50;3.17;;;22.50;54.80;;;;;;5053249;28;20229;-72
2023/05/29 07:34:45;;;;;;;5.67;3.20;;;22.60;55.00;;;;;;5052443;28;20672;-72
2023/05/29 07:37:12;;;;;;;4.33;3.10;;;22.80;54.80;;;;;;5052686;28;20332;-72
2023/05/29 07:39:39;;;;;;;4.37;3.30;;;22.80;54.80;;;;;;5052998;28;20890;-72
2023/05/29 07:42:07;;;;;;;7.23;3.43;;;23.00;54.40;;;;;;5052976;28;20312;-72
2023/05/29 07:44:33;;;;;;;5.90;3.43;;;23.10;53.90;;;;;;5034923;28;20245;-71
2023/05/29 07:47:02;;;;;;;4.57;3.33;;;23.20;53.00;;;;;;5052362;28;20296;-71
2023/05/29 07:49:29;;;;;;;7.43;3.10;;;23.20;52.90;;;;;;5051901;28;20210;-71
2023/05/29 07:51:55;;;;;;;3.67;3.27;;;23.30;53.50;;;;;;5052882;28;20229;-72
2023/05/29 07:54:23;;;;;;;4.87;3.00;;;23.40;53.20;;;;;;5052668;28;20304;-71
2023/05/29 07:56:50;;;;;;;3.63;3.13;;;23.50;53.40;;;;;;5051576;28;20352;-72
2023/05/29 07:59:17;;;;;;;4.90;2.90;;;23.50;53.00;;;;;;5052698;28;20304;-72
2023/05/29 08:01:44;;;;;;;4.40;3.40;;;23.70;52.90;;;;;;5052203;28;20213;-72
2023/05/29 08:04:12;;;;;;;4.43;3.40;;;23.80;52.50;;;;;;5051706;28;20236;-71
2023/05/29 08:06:42;;;;;;;4.43;3.50;;;23.80;52.80;;;;;;5050273;28;20224;-67
2023/05/29 08:09:09;;;;;;;5.03;3.47;;;23.90;52.30;;;;;;5051608;28;20206;-70
2023/05/29 08:11:36;;;;;;;3.13;2.83;;;24.10;53.00;;;;;;5051599;28;20210;-70
2023/05/29 08:14:03;;;;;;;3.53;3.10;;;24.10;52.50;;;;;;5051364;28;20201;-70
2023/05/29 08:16:30;;;;;;;4.20;3.30;;;24.20;52.20;;;;;;5051123;28;20257;-69
2023/05/29 08:18:57;;;;;;;4.80;3.13;;;24.30;52.60;;;;;;5051103;28;20677;-70
2023/05/29 08:21:26;;;;;;;4.93;3.40;;;24.40;52.70;;;;;;5050606;28;20255;-69
2023/05/29 08:23:53;;;;;;;3.80;3.30;;;24.50;52.20;;;;;;5051498;28;20255;-70
2023/05/29 08:26:20;;;;;;;4.47;3.23;;;24.60;52.60;;;;;;5050142;28;20216;-70
2023/05/29 08:28:47;;;;;;;4.07;3.33;;;24.60;51.80;;;;;;5051244;28;20233;-70
2023/05/29 08:31:14;;;;;;;3.90;3.27;;;24.70;50.80;;;;;;5050582;28;20661;-70
2023/05/29 08:33:41;;;;;;;4.10;3.20;;;24.80;51.10;;;;;;5051401;28;20208;-69
2023/05/29 08:36:08;;;;;;;4.47;3.20;;;24.80;50.60;;;;;;5050250;28;20249;-70
2023/05/29 08:38:36;;;;;;;4.20;3.63;;;24.90;51.30;;;;;;5051018;28;20263;-70
2023/05/29 08:41:03;;;;;;;4.27;3.00;;;25.00;51.10;;;;;;5050471;28;20244;-70
2023/05/29 08:43:32;;;;;;;4.63;3.23;;;25.10;51.80;;;;;;5050983;28;20307;-69
2023/05/29 08:46:01;;;;;;;3.20;2.77;;;25.20;50.80;;;;;;5034741;28;20656;-69
2023/05/29 08:48:30;;;;;;;4.47;3.50;;;25.30;51.00;;;;;;5031010;28;20722;-69
2023/05/29 08:50:58;;;;;;;3.70;3.30;;;25.40;50.70;;;;;;5044476;28;20224;-69
2023/05/29 08:53:26;;;;;;;3.67;2.87;;;25.40;50.90;;;;;;5050893;28;20321;-70
2023/05/29 08:55:55;;;;;;;5.20;3.40;;;25.60;50.80;;;;;;5050471;28;20301;-70
2023/05/29 08:58:23;;;;;;;4.27;3.17;;;25.60;50.20;;;;;;5050731;28;20629;-70
2023/05/29 09:00:51;;;;;;;5.03;3.53;;;25.70;49.70;;;;;;5050949;28;20237;-70
2023/05/29 09:03:19;;;;;;;4.63;3.50;;;25.80;49.70;;;;;;5051160;28;20226;-70
2023/05/29 09:05:47;;;;;;;4.03;3.00;;;25.90;48.80;;;;;;5050277;28;20209;-69
2023/05/29 09:08:14;;;;;;;6.33;3.00;;;25.90;49.40;;;;;;5050922;28;20209;-70
2023/05/29 09:10:43;;;;;;;5.50;3.33;;;26.00;49.50;;;;;;5049751;28;20206;-71
2023/05/29 09:13:11;;;;;;;4.53;3.10;;;26.10;49.50;;;;;;5050775;28;20222;-69
2023/05/29 09:15:40;;;;;;;4.73;3.50;;;26.20;48.90;;;;;;5050734;28;20236;-70
2023/05/29 09:18:08;;;;;;;5.37;3.60;;;26.30;49.60;;;;;;5050777;28;20647;-69
2023/05/29 09:20:35;;;;;;;4.70;3.50;;;26.40;49.40;;;;;;5050685;28;20296;-69
2023/05/29 09:23:06;;;;;;;5.93;4.10;;;26.50;49.20;;;;;;5050828;28;20206;-70
2023/05/29 09:25:35;;;;;;;4.47;3.63;;;26.60;48.70;;;;;;5049748;28;20233;-69
2023/05/29 09:28:04;;;;;;;4.03;3.20;;;26.60;47.30;;;;;;5050690;28;20214;-69
2023/05/29 09:30:37;;;;;;;3.67;3.17;;;26.70;47.50;;;;;;5050779;28;20215;-68
2023/05/29 09:33:05;;;;;;;4.67;3.27;;;26.70;49.00;;;;;;5050540;28;20747;-70
2023/05/29 09:35:36;;;;;;;3.90;3.50;;;26.80;49.00;;;;;;5049795;28;20211;-69
2023/05/29 09:38:03;;;;;;;4.07;3.10;;;27.00;48.00;;;;;;5050860;28;20582;-70
2023/05/29 09:40:34;;;;;;;4.50;3.17;;;27.10;47.90;;;;;;5054227;28;20199;-70
2023/05/29 09:43:07;;;;;;;5.07;3.37;;;27.20;47.30;;;;;;5054087;28;20292;-69
2023/05/29 09:45:38;;;;;;;5.10;3.30;;;27.30;46.80;;;;;;5053219;28;20207;-70
2023/05/29 09:48:06;;;;;;;5.27;3.10;;;27.30;47.40;;;;;;5052602;28;20245;-70
2023/05/29 09:50:35;;;;;;;5.07;3.30;;;27.40;47.40;;;;;;4999076;28;20203;-69
2023/05/29 09:53:03;;;;;;;5.47;3.90;;;27.50;47.40;;;;;;5034218;28;20659;-69
2023/05/29 09:55:32;;;;;;;5.37;3.93;;;27.60;46.70;;;;;;5034148;28;20214;-69
2023/05/29 09:58:00;;;;;;;4.67;3.50;;;27.60;46.50;;;;;;5037293;28;20262;-69
2023/05/29 10:00:27;;;;;;;4.40;3.50;;;27.70;46.30;;;;;;5053846;28;20230;-69
2023/05/29 10:02:55;;;;;;;4.23;3.37;;;27.90;46.30;;;;;;5053343;28;20216;-69
2023/05/29 10:05:22;;;;;;;5.63;3.60;;;28.00;45.40;;;;;;5053940;28;20235;-69
2023/05/29 10:07:53;;;;;;;4.87;3.37;;;28.00;46.40;;;;;;5053226;28;20249;-71
2023/05/29 10:10:21;;;;;;;3.60;3.27;;;28.10;46.40;;;;;;5054071;28;20220;-68
2023/05/29 10:12:50;;;;;;;5.10;3.50;;;28.20;45.80;;;;;;5053879;28;20235;-70
2023/05/29 10:15:19;;;;;;;5.53;3.60;;;28.20;45.00;;;;;;5054168;28;20540;-70
2023/05/29 10:17:52;;;;;;;6.40;4.07;;;28.40;44.60;;;;;;5053002;28;20617;-69
2023/05/29 10:20:22;;;;;;;4.87;4.10;;;28.40;44.60;;;;;;5054008;28;20232;-69
2023/05/29 10:22:51;;;;;;;5.27;3.43;;;28.40;45.10;;;;;;5052878;28;20198;-72
2023/05/29 10:25:21;;;;;;;3.90;3.43;;;28.50;44.80;;;;;;5053367;28;20229;-70
2023/05/29 10:27:48;;;;;;;4.07;3.67;;;28.70;44.40;;;;;;5053474;28;20204;-70
2023/05/29 10:30:28;;;;;;;4.50;3.40;;;28.70;43.90;;;;;;5053240;28;20304;-69
2023/05/29 10:33:19;;;;;;;4.47;3.40;;;28.80;43.10;;;;;;5053564;28;20319;-70
2023/05/29 10:35:50;;;;;;;5.97;3.60;;;28.80;43.00;;;;;;5051001;28;20255;-69
2023/05/29 10:38:18;;;;;;;5.97;3.50;;;28.90;43.70;;;;;;5052271;28;20205;-70
2023/05/29 10:40:45;;;;;;;3.50;3.20;;;29.00;43.80;;;;;;5053480;28;20217;-70
2023/05/29 10:43:32;;;;;;;4.07;3.50;;;29.10;43.40;;;;;;5053363;28;20212;-70
2023/05/29 10:45:58;;;;;;;4.77;3.53;;;29.10;42.60;;;;;;5053244;28;20229;-69
2023/05/29 10:48:42;;;;;;;4.80;3.53;;;29.20;42.10;;;;;;5051801;28;20210;-70
2023/05/29 10:51:28;;;;;;;4.97;3.70;;;29.30;42.10;;;;;;5053027;28;20255;-69
2023/05/29 10:53:55;;;;;;;4.63;3.60;;;29.30;42.30;;;;;;5053422;28;20227;-70
2023/05/29 10:56:26;;;;;;;4.77;3.33;;;29.50;42.30;;;;;;5053282;28;20259;-70
2023/05/29 10:59:00;;;;;;;5.90;3.87;;;29.50;42.00;;;;;;5052154;28;20563;-69
2023/05/29 11:01:29;;;;;;;6.87;3.70;;;29.60;42.50;;;;;;5052709;28;20213;-68
2023/05/29 11:04:31;;;;;;;5.43;3.47;;;29.70;41.70;;;;;;5052087;28;20278;-68
2023/05/29 11:07:00;;;;;;;4.50;3.13;;;29.70;40.80;;;;;;5052457;28;20310;-70
2023/05/29 11:09:28;;;;;;;5.23;3.50;;;29.80;41.10;;;;;;5052904;28;20201;-68
2023/05/29 11:12:12;;;;;;;4.87;3.13;;;29.90;40.90;;;;;;5053002;28;20205;-70
2023/05/29 11:14:46;;;;;;;7.27;3.70;;;29.90;40.10;;;;;;5052303;28;20240;-69
2023/05/29 11:17:45;;;;;;;6.03;3.90;;;30.00;39.70;;;;;;5052559;28;20225;-70
2023/05/29 11:20:21;;;;;;;4.77;3.47;;;30.10;39.20;;;;;;5052445;28;20206;-69
2023/05/29 11:23:01;;;;;;;4.13;3.70;;;30.10;39.50;;;;;;5052563;28;20201;-68
2023/05/29 11:25:29;;;;;;;5.00;3.30;;;30.10;39.40;;;;;;5052512;28;20264;-69
2023/05/29 11:27:57;;;;;;;4.10;3.50;;;30.20;40.30;;;;;;5052601;28;20201;-69
2023/05/29 11:30:24;;;;;;;4.30;3.33;;;30.30;39.70;;;;;;5052225;28;20253;-68
2023/05/29 11:32:53;;;;;;;4.33;3.43;;;30.30;40.10;;;;;;5052658;28;20201;-69
2023/05/29 11:35:23;;;;;;;5.77;3.40;;;30.30;39.70;;;;;;5052397;28;20204;-69
2023/05/29 11:37:50;;;;;;;4.47;3.50;;;30.40;38.90;;;;;;5051376;28;20229;-68
2023/05/29 11:40:19;;;;;;;5.27;3.30;;;30.40;39.10;;;;;;5052264;28;20720;-68
2023/05/29 11:42:48;;;;;;;4.50;3.40;;;30.50;39.60;;;;;;5051704;28;20557;-70
2023/05/29 11:45:16;;;;;;;7.03;3.63;;;30.50;39.40;;;;;;5052017;28;20297;-69
2023/05/29 11:47:53;;;;;;;5.47;3.20;;;30.50;39.00;;;;;;5045022;28;20198;-70
2023/05/29 11:50:21;;;;;;;3.60;2.93;;;30.60;38.10;;;;;;5030976;28;20234;-70
2023/05/29 11:52:48;;;;;;;4.50;3.37;;;30.70;39.60;;;;;;5046584;28;20232;-69
2023/05/29 11:55:15;;;;;;;4.63;3.20;;;30.70;38.50;;;;;;5051292;28;20205;-70
2023/05/29 11:57:43;;;;;;;4.77;3.57;;;30.70;39.20;;;;;;5051684;28;20540;-70
2023/05/29 12:00:14;;;;;;;4.33;3.27;;;30.70;37.90;;;;;;5051020;28;20212;-69
2023/05/29 12:02:42;;;;;;;3.43;3.13;;;30.80;37.40;;;;;;5051309;28;20723;-70
2023/05/29 12:05:10;;;;;;;4.83;3.37;;;30.90;38.00;;;;;;5051366;28;20320;-69
2023/05/29 12:07:37;;;;;;;3.47;3.07;;;30.80;37.70;;;;;;5051400;28;20293;-71
2023/05/29 12:10:11;;;;;;;3.37;3.07;;;30.80;37.30;;;;;;5051351;28;20320;-69
2023/05/29 12:12:39;;;;;;;7.03;3.83;;;30.90;37.60;;;;;;5051755;28;20205;-69
2023/05/29 12:15:08;;;;;;;5.13;3.23;;;30.90;38.20;;;;;;5050103;28;20228;-71
2023/05/29 12:17:36;;;;;;;3.67;3.30;;;31.00;37.80;;;;;;5051624;28;20205;-70
2023/05/29 12:20:06;;;;;;;6.47;3.40;;;31.10;37.40;;;;;;5051234;28;20205;-71
2023/05/29 12:22:35;;;;;;;4.30;3.43;;;31.10;37.00;;;;;;5051477;28;20302;-71
2023/05/29 12:25:07;;;;;;;6.37;3.70;;;31.10;37.10;;;;;;5049357;28;20608;-70
2023/05/29 12:27:37;;;;;;;4.70;3.80;;;31.20;37.40;;;;;;5050353;28;20735;-71
2023/05/29 12:30:06;;;;;;;4.70;3.43;;;31.30;37.20;;;;;;5050497;28;20263;-70
2023/05/29 12:32:40;;;;;;;3.60;3.00;;;31.30;37.00;;;;;;5051092;28;20228;-70
2023/05/29 12:35:15;;;;;;;4.17;3.00;;;31.30;35.00;;;;;;5050973;28;20221;-72
2023/05/29 12:37:46;;;;;;;4.70;3.10;;;31.30;34.90;;;;;;5050734;28;20213;-70
2023/05/29 12:40:20;;;;;;;5.93;3.60;;;31.30;36.40;;;;;;5050761;28;20205;-69
2023/05/29 12:42:48;;;;;;;4.10;3.17;;;31.30;35.10;;;;;;5051386;28;20205;-70
2023/05/29 12:45:15;;;;;;;4.47;3.10;;;31.40;35.80;;;;;;5051307;28;20214;-71
2023/05/29 12:47:53;;;;;;;4.50;3.40;;;31.50;35.10;;;;;;5049508;28;20232;-71
2023/05/29 12:50:24;;;;;;;3.83;2.93;;;31.60;35.30;;;;;;5050673;28;20267;-70
2023/05/29 12:52:55;;;;;;;4.20;3.20;;;31.60;35.40;;;;;;5051215;28;20205;-69